sensor_id;sensor_type;location;lat;lon;timestamp;pressure;altitude;pressure_sealevel;temperature;humidity
54994;BME280;40891;47.242;8.648;2023-08-06T00:00:15;95812.66;;;17.02;100.00
54994;BME280;40891;47.242;8.648;2023-08-06T00:02:40;95816.97;;;16.97;100.00
54994;BME280;40891;47.242;8.648;2023-08-06T00:05:06;95819.03;;;16.91;100.00
54994;BME280;40891;47.242;8.648;2023-08-06T00:07:31;95809.81;;;16.85;99.65
54994;BME280;40891;47.242;8.648;2023-08-06T00:09:57;95807.53;;;16.84;100.00
54994;BME280;40891;47.242;8.648;2023-08-06T00:12:23;95812.13;;;16.81;100.00
54994;BME280;40891;47.242;8.648;2023-08-06T00:14:52;95800.88;;;16.76;100.00
54994;BME280;40891;47.242;8.648;2023-08-06T00:17:18;95807.97;;;16.66;100.00
54994;BME280;40891;47.242;8.648;2023-08-06T00:19:43;95801.63;;;16.65;92.26
54994;BME280;40891;47.242;8.648;2023-08-06T00:22:09;95794.22;;;16.68;93.13
54994;BME280;40891;47.242;8.648;2023-08-06T00:24:34;95789.13;;;16.72;93.75
54994;BME280;40891;47.242;8.648;2023-08-06T00:27:00;95791.69;;;16.81;94.83
54994;BME280;40891;47.242;8.648;2023-08-06T00:29:25;95789.91;;;16.83;95.18
54994;BME280;40891;47.242;8.648;2023-08-06T00:31:50;95793.44;;;16.73;93.74
54994;BME280;40891;47.242;8.648;2023-08-06T00:34:15;95785.81;;;16.68;93.44
54994;BME280;40891;47.242;8.648;2023-08-06T00:36:41;95784.78;;;16.76;94.83
54994;BME280;40891;47.242;8.648;2023-08-06T00:39:06;95780.19;;;16.73;98.38
54994;BME280;40891;47.242;8.648;2023-08-06T00:41:32;95780.41;;;16.59;99.15
54994;BME280;40891;47.242;8.648;2023-08-06T00:43:57;95774.28;;;16.66;99.83
54994;BME280;40891;47.242;8.648;2023-08-06T00:46:23;95767.91;;;16.54;99.97
54994;BME280;40891;47.242;8.648;2023-08-06T00:48:48;95758.41;;;16.41;97.55
54994;BME280;40891;47.242;8.648;2023-08-06T00:51:15;95757.13;;;16.36;97.38
54994;BME280;40891;47.242;8.648;2023-08-06T00:53:41;95756.34;;;16.35;100.00
54994;BME280;40891;47.242;8.648;2023-08-06T00:56:08;95758.63;;;16.26;100.00
54994;BME280;40891;47.242;8.648;2023-08-06T00:58:35;95762.66;;;16.14;100.00
54994;BME280;40891;47.242;8.648;2023-08-06T01:01:01;95766.75;;;16.13;100.00
54994;BME280;40891;47.242;8.648;2023-08-06T01:03:26;95764.47;;;16.17;93.73
54994;BME280;40891;47.242;8.648;2023-08-06T01:05:52;95758.91;;;16.33;99.89
54994;BME280;40891;47.242;8.648;2023-08-06T01:08:28;95764.69;;;16.08;98.23
54994;BME280;40891;47.242;8.648;2023-08-06T01:11:12;95769.78;;;16.09;98.60
54994;BME280;40891;47.242;8.648;2023-08-06T01:13:45;95772.31;;;16.07;95.32
54994;BME280;40891;47.242;8.648;2023-08-06T01:16:14;95760.09;;;16.10;94.15
54994;BME280;40891;47.242;8.648;2023-08-06T01:18:40;95763.63;;;16.00;96.06
54994;BME280;40891;47.242;8.648;2023-08-06T01:21:07;95762.31;;;15.95;98.68
54994;BME280;40891;47.242;8.648;2023-08-06T01:23:32;95755.94;;;15.89;98.85
54994;BME280;40891;47.242;8.648;2023-08-06T01:31:31;95756.50;;;15.99;95.41
54994;BME280;40891;47.242;8.648;2023-08-06T01:33:58;95755.91;;;15.84;99.17
54994;BME280;40891;47.242;8.648;2023-08-06T01:36:24;95769.91;;;15.78;98.26
54994;BME280;40891;47.242;8.648;2023-08-06T01:38:52;95750.28;;;15.78;94.21
54994;BME280;40891;47.242;8.648;2023-08-06T01:41:18;95761.25;;;15.82;92.99
54994;BME280;40891;47.242;8.648;2023-08-06T01:43:43;95767.63;;;15.82;94.97
54994;BME280;40891;47.242;8.648;2023-08-06T01:46:08;95760.34;;;16.01;90.28
54994;BME280;40891;47.242;8.648;2023-08-06T01:48:34;95761.59;;;16.00;90.80
54994;BME280;40891;47.242;8.648;2023-08-06T01:50:59;95759.78;;;15.92;97.68
54994;BME280;40891;47.242;8.648;2023-08-06T01:53:24;95764.53;;;15.75;100.00
54994;BME280;40891;47.242;8.648;2023-08-06T01:55:50;95759.16;;;15.71;89.96
54994;BME280;40891;47.242;8.648;2023-08-06T01:58:15;95753.09;;;15.84;91.47
54994;BME280;40891;47.242;8.648;2023-08-06T02:00:41;95745.00;;;15.91;96.47
54994;BME280;40891;47.242;8.648;2023-08-06T02:03:06;95744.13;;;15.69;89.63
54994;BME280;40891;47.242;8.648;2023-08-06T02:05:31;95738.00;;;15.70;95.46
54994;BME280;40891;47.242;8.648;2023-08-06T02:07:57;95730.38;;;15.71;90.09
54994;BME280;40891;47.242;8.648;2023-08-06T02:10:22;95724.59;;;15.85;84.17
54994;BME280;40891;47.242;8.648;2023-08-06T02:12:47;95715.16;;;15.88;83.86
54994;BME280;40891;47.242;8.648;2023-08-06T02:15:13;95712.88;;;15.92;85.26
54994;BME280;40891;47.242;8.648;2023-08-06T02:17:38;95720.00;;;15.93;82.80
54994;BME280;40891;47.242;8.648;2023-08-06T02:20:04;95708.31;;;16.00;81.80
54994;BME280;40891;47.242;8.648;2023-08-06T02:22:29;95707.53;;;16.00;80.65
54994;BME280;40891;47.242;8.648;2023-08-06T02:24:55;95708.78;;;15.93;85.98
54994;BME280;40891;47.242;8.648;2023-08-06T02:27:20;95707.00;;;15.85;88.39
54994;BME280;40891;47.242;8.648;2023-08-06T02:29:45;95715.88;;;15.83;88.76
54994;BME280;40891;47.242;8.648;2023-08-06T02:32:11;95703.91;;;15.77;86.97
54994;BME280;40891;47.242;8.648;2023-08-06T02:34:36;95708.94;;;15.68;91.62
54994;BME280;40891;47.242;8.648;2023-08-06T02:37:01;95702.81;;;15.63;89.65
54994;BME280;40891;47.242;8.648;2023-08-06T02:39:26;95701.34;;;15.31;90.97
54994;BME280;40891;47.242;8.648;2023-08-06T02:41:52;95699.78;;;15.25;89.07
54994;BME280;40891;47.242;8.648;2023-08-06T02:44:17;95698.00;;;15.27;87.79
54994;BME280;40891;47.242;8.648;2023-08-06T02:46:44;95698.97;;;15.55;83.27
54994;BME280;40891;47.242;8.648;2023-08-06T02:49:09;95693.38;;;15.61;81.97
54994;BME280;40891;47.242;8.648;2023-08-06T02:51:35;95693.69;;;15.74;81.27
54994;BME280;40891;47.242;8.648;2023-08-06T02:54:00;95683.00;;;15.73;81.52
54994;BME280;40891;47.242;8.648;2023-08-06T02:56:25;95676.63;;;15.83;80.14
54994;BME280;40891;47.242;8.648;2023-08-06T02:58:51;95682.00;;;15.87;80.87
54994;BME280;40891;47.242;8.648;2023-08-06T03:01:16;95682.03;;;15.92;81.69
54994;BME280;40891;47.242;8.648;2023-08-06T03:03:42;95678.75;;;15.99;79.63
54994;BME280;40891;47.242;8.648;2023-08-06T03:06:07;95685.09;;;16.00;78.61
54994;BME280;40891;47.242;8.648;2023-08-06T03:08:32;95679.50;;;16.00;79.93
54994;BME280;40891;47.242;8.648;2023-08-06T03:10:58;95675.66;;;15.97;79.18
54994;BME280;40891;47.242;8.648;2023-08-06T03:13:23;95675.44;;;16.01;79.24
54994;BME280;40891;47.242;8.648;2023-08-06T03:15:55;95667.78;;;16.07;77.33
54994;BME280;40891;47.242;8.648;2023-08-06T03:18:21;95673.16;;;16.10;77.76
54994;BME280;40891;47.242;8.648;2023-08-06T03:20:47;95666.78;;;16.10;79.30
54994;BME280;40891;47.242;8.648;2023-08-06T03:23:12;95665.25;;;16.09;79.17
54994;BME280;40891;47.242;8.648;2023-08-06T03:25:37;95657.34;;;16.13;78.01
54994;BME280;40891;47.242;8.648;2023-08-06T03:28:03;95659.91;;;16.16;79.02
54994;BME280;40891;47.242;8.648;2023-08-06T03:30:28;95664.28;;;16.23;80.26
54994;BME280;40891;47.242;8.648;2023-08-06T03:32:53;95671.88;;;16.17;78.70
54994;BME280;40891;47.242;8.648;2023-08-06T03:35:19;95660.16;;;16.24;79.41
54994;BME280;40891;47.242;8.648;2023-08-06T03:37:44;95655.34;;;16.24;79.04
54994;BME280;40891;47.242;8.648;2023-08-06T03:40:10;95659.41;;;16.29;80.32
54994;BME280;40891;47.242;8.648;2023-08-06T03:42:35;95655.34;;;16.35;79.27
54994;BME280;40891;47.242;8.648;2023-08-06T03:45:00;95654.59;;;16.41;78.19
54994;BME280;40891;47.242;8.648;2023-08-06T03:47:26;95656.88;;;16.37;79.87
54994;BME280;40891;47.242;8.648;2023-08-06T03:49:51;95659.44;;;16.34;78.90
54994;BME280;40891;47.242;8.648;2023-08-06T03:52:16;95663.25;;;16.31;79.09
54994;BME280;40891;47.242;8.648;2023-08-06T03:54:41;95659.44;;;16.34;78.62
54994;BME280;40891;47.242;8.648;2023-08-06T03:57:08;95656.38;;;16.32;78.52
54994;BME280;40891;47.242;8.648;2023-08-06T03:59:33;95664.78;;;16.32;79.80
54994;BME280;40891;47.242;8.648;2023-08-06T04:01:59;95667.34;;;16.36;77.76
54994;BME280;40891;47.242;8.648;2023-08-06T04:04:24;95681.63;;;16.32;79.38
54994;BME280;40891;47.242;8.648;2023-08-06T04:06:49;95681.38;;;16.36;80.95
54994;BME280;40891;47.242;8.648;2023-08-06T04:09:15;95681.59;;;16.27;79.20
54994;BME280;40891;47.242;8.648;2023-08-06T04:11:40;95694.34;;;16.28;79.71
54994;BME280;40891;47.242;8.648;2023-08-06T04:14:05;95698.19;;;16.30;80.17
54994;BME280;40891;47.242;8.648;2023-08-06T04:16:31;95684.16;;;16.30;78.38
54994;BME280;40891;47.242;8.648;2023-08-06T04:18:56;95679.06;;;16.34;78.71
54994;BME280;40891;47.242;8.648;2023-08-06T04:21:21;95688.75;;;16.45;77.59
54994;BME280;40891;47.242;8.648;2023-08-06T04:23:47;95688.00;;;16.50;78.48
54994;BME280;40891;47.242;8.648;2023-08-06T04:26:12;95688.28;;;16.46;78.02
54994;BME280;40891;47.242;8.648;2023-08-06T04:28:37;95700.25;;;16.47;78.39
54994;BME280;40891;47.242;8.648;2023-08-06T04:31:03;95696.94;;;16.48;77.69
54994;BME280;40891;47.242;8.648;2023-08-06T04:33:28;95693.41;;;16.53;77.57
54994;BME280;40891;47.242;8.648;2023-08-06T04:35:54;95696.44;;;16.50;77.53
54994;BME280;40891;47.242;8.648;2023-08-06T04:38:20;95690.34;;;16.51;76.79
54994;BME280;40891;47.242;8.648;2023-08-06T04:40:46;95685.00;;;16.53;75.82
54994;BME280;40891;47.242;8.648;2023-08-06T04:43:11;95692.09;;;16.49;76.93
54994;BME280;40891;47.242;8.648;2023-08-06T04:45:36;95689.84;;;16.58;77.13
54994;BME280;40891;47.242;8.648;2023-08-06T04:48:01;95697.25;;;16.56;76.02
54994;BME280;40891;47.242;8.648;2023-08-06T04:50:27;95701.06;;;16.53;76.47
54994;BME280;40891;47.242;8.648;2023-08-06T04:52:52;95697.50;;;16.58;76.97
54994;BME280;40891;47.242;8.648;2023-08-06T04:55:17;95702.31;;;16.52;77.42
54994;BME280;40891;47.242;8.648;2023-08-06T04:57:42;95710.25;;;16.53;76.39
54994;BME280;40891;47.242;8.648;2023-08-06T05:00:08;95712.53;;;16.55;75.47
54994;BME280;40891;47.242;8.648;2023-08-06T05:02:33;95703.09;;;16.58;75.51
54994;BME280;40891;47.242;8.648;2023-08-06T05:04:59;95711.75;;;16.54;74.39
54994;BME280;40891;47.242;8.648;2023-08-06T05:07:25;95714.28;;;16.41;77.05
54994;BME280;40891;47.242;8.648;2023-08-06T05:09:50;95724.97;;;16.31;78.49
54994;BME280;40891;47.242;8.648;2023-08-06T05:12:15;95734.38;;;16.17;81.13
54994;BME280;40891;47.242;8.648;2023-08-06T05:14:40;95754.50;;;16.10;85.06
54994;BME280;40891;47.242;8.648;2023-08-06T05:17:06;95749.03;;;15.85;87.83
54994;BME280;40891;47.242;8.648;2023-08-06T05:19:31;95757.59;;;15.59;91.49
54994;BME280;40891;47.242;8.648;2023-08-06T05:21:57;95746.16;;;15.31;95.89
54994;BME280;40891;47.242;8.648;2023-08-06T05:24:22;95766.72;;;15.23;98.44
54994;BME280;40891;47.242;8.648;2023-08-06T05:26:47;95761.28;;;15.08;99.71
54994;BME280;40891;47.242;8.648;2023-08-06T05:29:13;95767.00;;;14.93;99.16
54994;BME280;40891;47.242;8.648;2023-08-06T05:31:38;95783.97;;;14.84;96.88
54994;BME280;40891;47.242;8.648;2023-08-06T05:34:03;95786.69;;;14.73;99.76
54994;BME280;40891;47.242;8.648;2023-08-06T05:36:28;95789.16;;;14.66;100.00
54994;BME280;40891;47.242;8.648;2023-08-06T05:38:54;95791.59;;;14.53;100.00
54994;BME280;40891;47.242;8.648;2023-08-06T05:41:19;95796.41;;;14.52;100.00
54994;BME280;40891;47.242;8.648;2023-08-06T05:43:45;95795.78;;;14.43;100.00
54994;BME280;40891;47.242;8.648;2023-08-06T05:46:10;95805.38;;;14.36;100.00
54994;BME280;40891;47.242;8.648;2023-08-06T05:48:35;95809.44;;;14.35;100.00
54994;BME280;40891;47.242;8.648;2023-08-06T05:51:00;95812.44;;;14.31;100.00
54994;BME280;40891;47.242;8.648;2023-08-06T05:53:26;95809.97;;;14.39;100.00
54994;BME280;40891;47.242;8.648;2023-08-06T05:55:51;95822.25;;;14.27;100.00
54994;BME280;40891;47.242;8.648;2023-08-06T05:58:16;95825.44;;;14.35;100.00
54994;BME280;40891;47.242;8.648;2023-08-06T06:00:42;95828.91;;;14.29;100.00
54994;BME280;40891;47.242;8.648;2023-08-06T06:03:07;95826.75;;;14.39;100.00
54994;BME280;40891;47.242;8.648;2023-08-06T06:05:32;95856.56;;;14.42;100.00
54994;BME280;40891;47.242;8.648;2023-08-06T06:07:58;95854.72;;;14.39;100.00
54994;BME280;40891;47.242;8.648;2023-08-06T06:10:23;95853.13;;;14.53;100.00
54994;BME280;40891;47.242;8.648;2023-08-06T06:12:48;95841.53;;;14.40;100.00
54994;BME280;40891;47.242;8.648;2023-08-06T06:15:14;95845.97;;;14.52;100.00
54994;BME280;40891;47.242;8.648;2023-08-06T06:17:39;95842.53;;;14.62;100.00
54994;BME280;40891;47.242;8.648;2023-08-06T06:20:05;95846.78;;;14.58;100.00
54994;BME280;40891;47.242;8.648;2023-08-06T06:22:30;95857.53;;;14.59;100.00
54994;BME280;40891;47.242;8.648;2023-08-06T06:24:56;95854.22;;;14.86;100.00
54994;BME280;40891;47.242;8.648;2023-08-06T06:27:21;95858.13;;;14.94;100.00
54994;BME280;40891;47.242;8.648;2023-08-06T06:29:46;95865.16;;;15.10;100.00
54994;BME280;40891;47.242;8.648;2023-08-06T06:32:12;95857.44;;;14.99;100.00
54994;BME280;40891;47.242;8.648;2023-08-06T06:34:37;95856.13;;;14.95;100.00
54994;BME280;40891;47.242;8.648;2023-08-06T06:37:02;95870.09;;;14.95;100.00
54994;BME280;40891;47.242;8.648;2023-08-06T06:39:28;95873.34;;;14.88;100.00
54994;BME280;40891;47.242;8.648;2023-08-06T06:41:53;95878.59;;;15.06;99.63
54994;BME280;40891;47.242;8.648;2023-08-06T06:44:18;95886.66;;;14.98;99.29
54994;BME280;40891;47.242;8.648;2023-08-06T06:46:45;95885.69;;;15.02;100.00
54994;BME280;40891;47.242;8.648;2023-08-06T06:49:11;95885.28;;;14.88;99.36
54994;BME280;40891;47.242;8.648;2023-08-06T06:51:36;95890.88;;;14.88;99.99
54994;BME280;40891;47.242;8.648;2023-08-06T06:54:01;95893.38;;;14.81;100.00
54994;BME280;40891;47.242;8.648;2023-08-06T06:56:26;95893.06;;;14.79;100.00
54994;BME280;40891;47.242;8.648;2023-08-06T06:58:52;95890.75;;;14.97;99.54
54994;BME280;40891;47.242;8.648;2023-08-06T07:01:17;95896.88;;;15.02;99.41
54994;BME280;40891;47.242;8.648;2023-08-06T07:03:42;95887.81;;;15.12;99.66
54994;BME280;40891;47.242;8.648;2023-08-06T07:06:08;95879.81;;;15.25;99.43
54994;BME280;40891;47.242;8.648;2023-08-06T07:08:33;95880.88;;;15.33;96.53
54994;BME280;40891;47.242;8.648;2023-08-06T07:11:06;95871.63;;;15.47;96.14
54994;BME280;40891;47.242;8.648;2023-08-06T07:13:32;95884.69;;;15.56;95.83
54994;BME280;40891;47.242;8.648;2023-08-06T07:15:57;95884.56;;;15.76;93.61
54994;BME280;40891;47.242;8.648;2023-08-06T07:18:23;95883.63;;;15.90;91.45
54994;BME280;40891;47.242;8.648;2023-08-06T07:20:53;95883.88;;;15.87;86.53
54994;BME280;40891;47.242;8.648;2023-08-06T07:23:24;95883.78;;;16.12;90.10
54994;BME280;40891;47.242;8.648;2023-08-06T07:25:49;95883.88;;;16.29;86.48
54994;BME280;40891;47.242;8.648;2023-08-06T07:28:15;95881.03;;;16.23;86.26
54994;BME280;40891;47.242;8.648;2023-08-06T07:30:41;95886.97;;;16.42;85.74
54994;BME280;40891;47.242;8.648;2023-08-06T07:33:07;95895.59;;;16.27;87.66
54994;BME280;40891;47.242;8.648;2023-08-06T07:35:33;95903.56;;;15.92;87.71
54994;BME280;40891;47.242;8.648;2023-08-06T07:37:58;95894.22;;;16.06;89.91
54994;BME280;40891;47.242;8.648;2023-08-06T07:40:23;95904.56;;;15.95;90.51
54994;BME280;40891;47.242;8.648;2023-08-06T07:42:49;95900.84;;;15.72;86.83
54994;BME280;40891;47.242;8.648;2023-08-06T07:45:14;95881.41;;;15.63;88.96
54994;BME280;40891;47.242;8.648;2023-08-06T07:47:40;95911.16;;;15.55;89.00
54994;BME280;40891;47.242;8.648;2023-08-06T07:50:05;95908.25;;;15.75;90.56
54994;BME280;40891;47.242;8.648;2023-08-06T07:52:31;95907.53;;;15.80;89.01
54994;BME280;40891;47.242;8.648;2023-08-06T07:54:56;95906.19;;;15.70;88.30
54994;BME280;40891;47.242;8.648;2023-08-06T07:57:21;95908.88;;;15.90;88.65
54994;BME280;40891;47.242;8.648;2023-08-06T07:59:46;95920.00;;;15.79;93.07
54994;BME280;40891;47.242;8.648;2023-08-06T08:02:12;95924.63;;;15.25;92.76
54994;BME280;40891;47.242;8.648;2023-08-06T08:04:37;95937.91;;;15.05;92.99
54994;BME280;40891;47.242;8.648;2023-08-06T08:07:03;95922.06;;;14.76;94.09
54994;BME280;40891;47.242;8.648;2023-08-06T08:09:28;95935.16;;;14.64;97.43
54994;BME280;40891;47.242;8.648;2023-08-06T08:11:53;95958.38;;;14.70;98.07
54994;BME280;40891;47.242;8.648;2023-08-06T08:14:19;95947.31;;;14.81;98.30
54994;BME280;40891;47.242;8.648;2023-08-06T08:16:44;95936.47;;;15.15;96.54
54994;BME280;40891;47.242;8.648;2023-08-06T08:19:09;95955.25;;;15.09;96.82
54994;BME280;40891;47.242;8.648;2023-08-06T08:21:35;95943.25;;;14.62;100.00
54994;BME280;40891;47.242;8.648;2023-08-06T08:24:01;95945.78;;;14.40;99.61
54994;BME280;40891;47.242;8.648;2023-08-06T08:26:26;95958.66;;;14.17;100.00
54994;BME280;40891;47.242;8.648;2023-08-06T08:28:53;95957.06;;;13.96;100.00
54994;BME280;40891;47.242;8.648;2023-08-06T08:31:18;95961.44;;;13.83;100.00
54994;BME280;40891;47.242;8.648;2023-08-06T08:33:44;95966.28;;;13.68;100.00
54994;BME280;40891;47.242;8.648;2023-08-06T08:36:09;95959.81;;;13.61;100.00
54994;BME280;40891;47.242;8.648;2023-08-06T08:38:35;95963.69;;;13.64;100.00
54994;BME280;40891;47.242;8.648;2023-08-06T08:41:00;95967.63;;;13.72;100.00
54994;BME280;40891;47.242;8.648;2023-08-06T08:43:26;95974.84;;;13.79;100.00
54994;BME280;40891;47.242;8.648;2023-08-06T08:45:53;95976.69;;;13.82;100.00
54994;BME280;40891;47.242;8.648;2023-08-06T08:48:24;95979.38;;;13.61;100.00
54994;BME280;40891;47.242;8.648;2023-08-06T08:50:50;95985.47;;;13.75;100.00
54994;BME280;40891;47.242;8.648;2023-08-06T08:53:16;95981.28;;;13.70;100.00
54994;BME280;40891;47.242;8.648;2023-08-06T08:55:43;95972.16;;;13.70;100.00
54994;BME280;40891;47.242;8.648;2023-08-06T08:58:10;95977.53;;;13.88;100.00
54994;BME280;40891;47.242;8.648;2023-08-06T09:00:35;95972.88;;;13.99;100.00
54994;BME280;40891;47.242;8.648;2023-08-06T09:03:01;95971.69;;;14.06;100.00
54994;BME280;40891;47.242;8.648;2023-08-06T09:05:31;95979.00;;;14.18;100.00
54994;BME280;40891;47.242;8.648;2023-08-06T09:08:02;95976.56;;;14.60;100.00
54994;BME280;40891;47.242;8.648;2023-08-06T09:10:29;95977.19;;;14.70;100.00
54994;BME280;40891;47.242;8.648;2023-08-06T09:12:55;95979.00;;;14.93;100.00
54994;BME280;40891;47.242;8.648;2023-08-06T09:15:24;95971.75;;;14.81;100.00
54994;BME280;40891;47.242;8.648;2023-08-06T09:17:49;95968.44;;;14.82;100.00
54994;BME280;40891;47.242;8.648;2023-08-06T09:20:15;95970.94;;;15.00;100.00
54994;BME280;40891;47.242;8.648;2023-08-06T09:22:41;95972.97;;;15.46;99.39
54994;BME280;40891;47.242;8.648;2023-08-06T09:25:07;95969.41;;;15.45;98.83
54994;BME280;40891;47.242;8.648;2023-08-06T09:27:37;95979.06;;;15.70;98.56
54994;BME280;40891;47.242;8.648;2023-08-06T09:30:03;95974.00;;;16.05;100.00
54994;BME280;40891;47.242;8.648;2023-08-06T09:32:44;95986.38;;;16.24;100.00
54994;BME280;40891;47.242;8.648;2023-08-06T09:35:15;95989.91;;;15.88;98.49
54994;BME280;40891;47.242;8.648;2023-08-06T09:37:40;95992.22;;;15.58;97.10
54994;BME280;40891;47.242;8.648;2023-08-06T09:40:24;96001.19;;;15.94;100.00
54994;BME280;40891;47.242;8.648;2023-08-06T09:42:49;95991.47;;;15.89;100.00
54994;BME280;40891;47.242;8.648;2023-08-06T09:45:16;96000.41;;;15.93;100.00
54994;BME280;40891;47.242;8.648;2023-08-06T09:47:41;95988.19;;;15.96;94.40
54994;BME280;40891;47.242;8.648;2023-08-06T09:50:18;95983.38;;;15.97;96.88
54994;BME280;40891;47.242;8.648;2023-08-06T09:52:44;95998.25;;;16.14;100.00
54994;BME280;40891;47.242;8.648;2023-08-06T09:55:11;95997.00;;;15.84;94.17
54994;BME280;40891;47.242;8.648;2023-08-06T09:57:37;95994.53;;;16.22;95.30
54994;BME280;40891;47.242;8.648;2023-08-06T10:00:03;95992.13;;;16.89;93.25
54994;BME280;40891;47.242;8.648;2023-08-06T10:02:30;96000.66;;;17.17;88.33
54994;BME280;40891;47.242;8.648;2023-08-06T10:04:57;95995.50;;;17.04;88.21
54994;BME280;40891;47.242;8.648;2023-08-06T10:07:23;95994.69;;;16.92;90.27
54994;BME280;40891;47.242;8.648;2023-08-06T10:09:49;96009.72;;;16.84;89.75
54994;BME280;40891;47.242;8.648;2023-08-06T10:12:15;96006.69;;;16.51;90.76
54994;BME280;40891;47.242;8.648;2023-08-06T10:14:43;96009.81;;;16.21;92.39
54994;BME280;40891;47.242;8.648;2023-08-06T10:17:10;96011.81;;;16.15;95.42
54994;BME280;40891;47.242;8.648;2023-08-06T10:19:36;96006.28;;;15.95;97.98
54994;BME280;40891;47.242;8.648;2023-08-06T10:22:16;96021.72;;;15.34;99.06
54994;BME280;40891;47.242;8.648;2023-08-06T10:24:59;96023.47;;;15.31;100.00
54994;BME280;40891;47.242;8.648;2023-08-06T10:30:30;96017.94;;;15.88;100.00
54994;BME280;40891;47.242;8.648;2023-08-06T10:32:58;96021.41;;;16.03;95.07
54994;BME280;40891;47.242;8.648;2023-08-06T10:35:31;96023.63;;;16.30;97.97
54994;BME280;40891;47.242;8.648;2023-08-06T10:40:29;96013.44;;;16.27;92.66
54994;BME280;40891;47.242;8.648;2023-08-06T10:42:58;96031.91;;;16.82;94.95
54994;BME280;40891;47.242;8.648;2023-08-06T10:45:24;96004.47;;;17.08;92.11
54994;BME280;40891;47.242;8.648;2023-08-06T10:47:53;96018.53;;;17.19;88.96
54994;BME280;40891;47.242;8.648;2023-08-06T10:50:20;96019.03;;;17.12;85.88
54994;BME280;40891;47.242;8.648;2023-08-06T10:52:46;96016.69;;;17.05;85.81
54994;BME280;40891;47.242;8.648;2023-08-06T10:55:13;96015.25;;;17.37;89.36
54994;BME280;40891;47.242;8.648;2023-08-06T10:57:38;96015.53;;;17.34;84.08
54994;BME280;40891;47.242;8.648;2023-08-06T11:00:05;96007.94;;;17.67;81.13
54994;BME280;40891;47.242;8.648;2023-08-06T11:02:35;95997.75;;;18.48;81.28
54994;BME280;40891;47.242;8.648;2023-08-06T11:05:05;95984.00;;;19.07;77.00
54994;BME280;40891;47.242;8.648;2023-08-06T11:07:31;96006.03;;;19.03;76.90
54994;BME280;40891;47.242;8.648;2023-08-06T11:10:04;95986.06;;;19.07;72.17
54994;BME280;40891;47.242;8.648;2023-08-06T11:12:31;96000.50;;;18.81;73.93
54994;BME280;40891;47.242;8.648;2023-08-06T11:14:57;96007.72;;;19.34;72.71
54994;BME280;40891;47.242;8.648;2023-08-06T11:17:22;96000.31;;;20.42;67.61
54994;BME280;40891;47.242;8.648;2023-08-06T11:19:48;95998.16;;;20.78;67.75
54994;BME280;40891;47.242;8.648;2023-08-06T11:22:14;95984.47;;;22.05;61.67
54994;BME280;40891;47.242;8.648;2023-08-06T11:24:40;95982.88;;;21.91;61.13
54994;BME280;40891;47.242;8.648;2023-08-06T11:27:15;95990.34;;;21.14;62.42
54994;BME280;40891;47.242;8.648;2023-08-06T11:29:42;96000.41;;;20.01;64.32
54994;BME280;40891;47.242;8.648;2023-08-06T11:32:08;95996.72;;;19.30;66.87
54994;BME280;40891;47.242;8.648;2023-08-06T11:34:34;96004.06;;;19.50;66.61
54994;BME280;40891;47.242;8.648;2023-08-06T11:37:00;96007.72;;;18.54;66.49
54994;BME280;40891;47.242;8.648;2023-08-06T11:39:25;96005.63;;;18.77;66.37
54994;BME280;40891;47.242;8.648;2023-08-06T11:41:51;95995.13;;;18.77;66.64
54994;BME280;40891;47.242;8.648;2023-08-06T11:44:19;96030.84;;;19.16;64.45
54994;BME280;40891;47.242;8.648;2023-08-06T11:46:52;96019.63;;;19.05;65.84
54994;BME280;40891;47.242;8.648;2023-08-06T11:49:17;96003.03;;;18.84;64.47
54994;BME280;40891;47.242;8.648;2023-08-06T11:51:47;96024.31;;;18.74;65.84
54994;BME280;40891;47.242;8.648;2023-08-06T11:54:12;96029.16;;;18.90;65.73
54994;BME280;40891;47.242;8.648;2023-08-06T11:56:37;96024.03;;;18.94;64.09
54994;BME280;40891;47.242;8.648;2023-08-06T11:59:03;96021.09;;;19.17;64.59
54994;BME280;40891;47.242;8.648;2023-08-06T12:01:28;96017.56;;;20.03;64.37
54994;BME280;40891;47.242;8.648;2023-08-06T12:03:59;96016.03;;;20.02;61.28
54994;BME280;40891;47.242;8.648;2023-08-06T12:06:27;96024.81;;;19.93;64.00
54994;BME280;40891;47.242;8.648;2023-08-06T12:08:52;96030.25;;;19.34;67.06
54994;BME280;40891;47.242;8.648;2023-08-06T12:11:21;96025.31;;;18.88;67.76
54994;BME280;40891;47.242;8.648;2023-08-06T12:13:50;96035.63;;;18.35;68.63
54994;BME280;40891;47.242;8.648;2023-08-06T12:16:16;96045.06;;;17.88;69.05
54994;BME280;40891;47.242;8.648;2023-08-06T12:18:43;96049.03;;;17.43;71.77
54994;BME280;40891;47.242;8.648;2023-08-06T12:21:09;96057.69;;;17.39;73.45
54994;BME280;40891;47.242;8.648;2023-08-06T12:23:34;96070.63;;;17.15;81.27
54994;BME280;40891;47.242;8.648;2023-08-06T12:25:59;96077.78;;;16.73;89.85
54994;BME280;40891;47.242;8.648;2023-08-06T12:28:25;96090.91;;;15.94;93.62
54994;BME280;40891;47.242;8.648;2023-08-06T12:30:50;96094.31;;;15.78;94.65
54994;BME280;40891;47.242;8.648;2023-08-06T12:33:15;96076.84;;;15.88;100.00
54994;BME280;40891;47.242;8.648;2023-08-06T12:35:40;96076.38;;;15.95;98.58
54994;BME280;40891;47.242;8.648;2023-08-06T12:38:06;96070.56;;;15.99;94.83
54994;BME280;40891;47.242;8.648;2023-08-06T12:40:31;96085.50;;;15.90;95.12
54994;BME280;40891;47.242;8.648;2023-08-06T12:42:56;96087.78;;;15.86;96.46
54994;BME280;40891;47.242;8.648;2023-08-06T12:45:24;96082.44;;;15.88;94.65
54994;BME280;40891;47.242;8.648;2023-08-06T12:47:49;96084.16;;;15.80;93.97
54994;BME280;40891;47.242;8.648;2023-08-06T12:50:14;96085.06;;;15.97;94.41
54994;BME280;40891;47.242;8.648;2023-08-06T12:52:40;96078.47;;;16.00;91.25
54994;BME280;40891;47.242;8.648;2023-08-06T12:55:05;96074.25;;;16.42;91.83
54994;BME280;40891;47.242;8.648;2023-08-06T12:57:30;96076.03;;;16.76;87.96
54994;BME280;40891;47.242;8.648;2023-08-06T12:59:56;96086.53;;;16.81;87.68
54994;BME280;40891;47.242;8.648;2023-08-06T13:02:21;96087.16;;;17.01;85.74